sensor_id;sensor_type;location;lat;lon;timestamp;temperature;humidity
23685;DHT22;12020;51.384;6.908;2024-03-08T00:00:43;5.00;99.90
23685;DHT22;12020;51.384;6.908;2024-03-08T00:03:08;5.00;99.90
23685;DHT22;12020;51.384;6.908;2024-03-08T00:05:36;4.90;99.90
23685;DHT22;12020;51.384;6.908;2024-03-08T00:08:04;4.90;99.90
23685;DHT22;12020;51.384;6.908;2024-03-08T00:10:30;4.90;99.90
23685;DHT22;12020;51.384;6.908;2024-03-08T00:12:56;4.90;99.90
23685;DHT22;12020;51.384;6.908;2024-03-08T00:15:23;4.90;99.90
23685;DHT22;12020;51.384;6.908;2024-03-08T00:17:50;4.90;99.90
23685;DHT22;12020;51.384;6.908;2024-03-08T00:20:16;4.80;99.90
23685;DHT22;12020;51.384;6.908;2024-03-08T00:22:43;4.90;99.90
23685;DHT22;12020;51.384;6.908;2024-03-08T00:25:10;4.80;99.90
23685;DHT22;12020;51.384;6.908;2024-03-08T00:27:37;4.80;99.90
23685;DHT22;12020;51.384;6.908;2024-03-08T00:30:09;4.80;99.90
23685;DHT22;12020;51.384;6.908;2024-03-08T00:32:36;4.80;99.90
23685;DHT22;12020;51.384;6.908;2024-03-08T00:35:02;4.80;99.90
23685;DHT22;12020;51.384;6.908;2024-03-08T00:37:28;4.70;99.90
23685;DHT22;12020;51.384;6.908;2024-03-08T00:39:54;4.70;99.90
23685;DHT22;12020;51.384;6.908;2024-03-08T00:42:20;4.70;99.90
23685;DHT22;12020;51.384;6.908;2024-03-08T00:44:46;4.60;99.90
23685;DHT22;12020;51.384;6.908;2024-03-08T00:47:13;4.70;99.90
23685;DHT22;12020;51.384;6.908;2024-03-08T00:49:41;4.60;99.90
23685;DHT22;12020;51.384;6.908;2024-03-08T00:52:07;4.60;99.90
23685;DHT22;12020;51.384;6.908;2024-03-08T00:54:33;4.60;99.90
23685;DHT22;12020;51.384;6.908;2024-03-08T00:56:59;4.50;99.90
23685;DHT22;12020;51.384;6.908;2024-03-08T00:59:28;4.50;99.90
23685;DHT22;12020;51.384;6.908;2024-03-08T01:01:54;4.50;99.90
23685;DHT22;12020;51.384;6.908;2024-03-08T01:04:20;4.40;99.90
23685;DHT22;12020;51.384;6.908;2024-03-08T01:06:47;4.50;99.90
23685;DHT22;12020;51.384;6.908;2024-03-08T01:09:13;4.40;99.90
23685;DHT22;12020;51.384;6.908;2024-03-08T01:11:39;4.40;99.90
23685;DHT22;12020;51.384;6.908;2024-03-08T01:14:05;4.40;99.90
23685;DHT22;12020;51.384;6.908;2024-03-08T01:16:31;4.40;99.90
23685;DHT22;12020;51.384;6.908;2024-03-08T01:18:58;4.40;99.90
23685;DHT22;12020;51.384;6.908;2024-03-08T01:21:24;4.40;99.90
23685;DHT22;12020;51.384;6.908;2024-03-08T01:23:50;4.40;99.90
23685;DHT22;12020;51.384;6.908;2024-03-08T01:26:15;4.30;99.90
23685;DHT22;12020;51.384;6.908;2024-03-08T01:28:41;4.30;99.90
23685;DHT22;12020;51.384;6.908;2024-03-08T01:31:07;4.30;99.90
23685;DHT22;12020;51.384;6.908;2024-03-08T01:33:33;4.20;99.90
23685;DHT22;12020;51.384;6.908;2024-03-08T01:35:58;4.20;99.90
23685;DHT22;12020;51.384;6.908;2024-03-08T01:38:24;4.20;99.90
23685;DHT22;12020;51.384;6.908;2024-03-08T01:40:50;4.20;99.90
23685;DHT22;12020;51.384;6.908;2024-03-08T01:43:23;4.10;99.90
23685;DHT22;12020;51.384;6.908;2024-03-08T01:45:51;4.10;99.90
23685;DHT22;12020;51.384;6.908;2024-03-08T01:48:18;4.10;99.90
23685;DHT22;12020;51.384;6.908;2024-03-08T01:50:45;4.10;99.90
23685;DHT22;12020;51.384;6.908;2024-03-08T01:53:11;4.00;99.90
23685;DHT22;12020;51.384;6.908;2024-03-08T01:55:38;4.00;99.90
23685;DHT22;12020;51.384;6.908;2024-03-08T01:58:09;4.00;99.90
23685;DHT22;12020;51.384;6.908;2024-03-08T02:00:36;4.00;99.90
23685;DHT22;12020;51.384;6.908;2024-03-08T02:03:05;4.00;99.90
23685;DHT22;12020;51.384;6.908;2024-03-08T02:05:31;4.10;99.90
23685;DHT22;12020;51.384;6.908;2024-03-08T02:08:00;4.00;99.90
23685;DHT22;12020;51.384;6.908;2024-03-08T02:10:26;4.00;99.90
23685;DHT22;12020;51.384;6.908;2024-03-08T02:12:52;4.00;99.90
23685;DHT22;12020;51.384;6.908;2024-03-08T02:15:18;4.00;99.90
23685;DHT22;12020;51.384;6.908;2024-03-08T02:17:43;3.90;99.90
23685;DHT22;12020;51.384;6.908;2024-03-08T02:20:09;4.00;99.90
23685;DHT22;12020;51.384;6.908;2024-03-08T02:22:36;3.90;99.90
23685;DHT22;12020;51.384;6.908;2024-03-08T02:25:02;3.90;99.90
23685;DHT22;12020;51.384;6.908;2024-03-08T02:27:28;3.90;99.90
23685;DHT22;12020;51.384;6.908;2024-03-08T02:29:55;3.90;99.90
23685;DHT22;12020;51.384;6.908;2024-03-08T02:32:22;4.00;99.90
23685;DHT22;12020;51.384;6.908;2024-03-08T02:34:49;4.00;99.90
23685;DHT22;12020;51.384;6.908;2024-03-08T02:37:18;3.90;99.90
23685;DHT22;12020;51.384;6.908;2024-03-08T02:39:44;3.90;99.90
23685;DHT22;12020;51.384;6.908;2024-03-08T02:42:11;3.90;99.90
23685;DHT22;12020;51.384;6.908;2024-03-08T02:44:37;3.90;99.90
23685;DHT22;12020;51.384;6.908;2024-03-08T02:47:03;3.90;99.90
23685;DHT22;12020;51.384;6.908;2024-03-08T02:49:29;3.80;99.90
23685;DHT22;12020;51.384;6.908;2024-03-08T02:51:55;3.80;99.90
23685;DHT22;12020;51.384;6.908;2024-03-08T02:54:22;3.80;99.90
23685;DHT22;12020;51.384;6.908;2024-03-08T02:56:48;3.80;99.90
23685;DHT22;12020;51.384;6.908;2024-03-08T02:59:16;3.70;99.90
23685;DHT22;12020;51.384;6.908;2024-03-08T03:01:43;3.70;99.90
23685;DHT22;12020;51.384;6.908;2024-03-08T03:04:09;3.70;99.90
23685;DHT22;12020;51.384;6.908;2024-03-08T03:06:34;3.70;99.90
23685;DHT22;12020;51.384;6.908;2024-03-08T03:09:01;3.70;99.90
23685;DHT22;12020;51.384;6.908;2024-03-08T03:11:28;3.70;99.90
23685;DHT22;12020;51.384;6.908;2024-03-08T03:13:53;3.70;99.90
23685;DHT22;12020;51.384;6.908;2024-03-08T03:16:19;3.70;99.90
23685;DHT22;12020;51.384;6.908;2024-03-08T03:18:46;3.70;99.90
23685;DHT22;12020;51.384;6.908;2024-03-08T03:21:12;3.70;99.90
23685;DHT22;12020;51.384;6.908;2024-03-08T03:23:39;3.70;99.90
23685;DHT22;12020;51.384;6.908;2024-03-08T03:26:05;3.70;99.90
23685;DHT22;12020;51.384;6.908;2024-03-08T03:28:32;3.80;99.90
23685;DHT22;12020;51.384;6.908;2024-03-08T03:30:59;3.70;99.90
23685;DHT22;12020;51.384;6.908;2024-03-08T03:33:25;3.70;99.90
23685;DHT22;12020;51.384;6.908;2024-03-08T03:35:51;3.70;99.90
23685;DHT22;12020;51.384;6.908;2024-03-08T03:38:17;3.70;99.90
23685;DHT22;12020;51.384;6.908;2024-03-08T03:40:45;3.70;99.90
23685;DHT22;12020;51.384;6.908;2024-03-08T03:43:11;3.70;99.90
23685;DHT22;12020;51.384;6.908;2024-03-08T03:45:38;3.60;99.90
23685;DHT22;12020;51.384;6.908;2024-03-08T03:48:05;3.60;99.90
23685;DHT22;12020;51.384;6.908;2024-03-08T03:50:37;3.70;99.90
23685;DHT22;12020;51.384;6.908;2024-03-08T03:53:04;3.70;99.90
23685;DHT22;12020;51.384;6.908;2024-03-08T03:55:33;3.70;99.90
23685;DHT22;12020;51.384;6.908;2024-03-08T03:57:58;3.80;99.90
23685;DHT22;12020;51.384;6.908;2024-03-08T04:00:27;3.60;99.90
23685;DHT22;12020;51.384;6.908;2024-03-08T04:02:52;3.60;99.90
23685;DHT22;12020;51.384;6.908;2024-03-08T04:05:18;3.60;99.90
23685;DHT22;12020;51.384;6.908;2024-03-08T04:07:44;3.60;99.90
23685;DHT22;12020;51.384;6.908;2024-03-08T04:10:11;3.60;99.90
23685;DHT22;12020;51.384;6.908;2024-03-08T04:12:37;3.60;99.90
23685;DHT22;12020;51.384;6.908;2024-03-08T04:15:03;3.50;99.90
23685;DHT22;12020;51.384;6.908;2024-03-08T04:17:30;3.50;99.90
23685;DHT22;12020;51.384;6.908;2024-03-08T04:19:56;3.50;99.90
23685;DHT22;12020;51.384;6.908;2024-03-08T04:22:22;3.50;99.90
23685;DHT22;12020;51.384;6.908;2024-03-08T04:24:48;3.50;99.90
23685;DHT22;12020;51.384;6.908;2024-03-08T04:27:15;3.50;99.90
23685;DHT22;12020;51.384;6.908;2024-03-08T04:29:41;3.40;99.90
23685;DHT22;12020;51.384;6.908;2024-03-08T04:32:07;3.40;99.90
23685;DHT22;12020;51.384;6.908;2024-03-08T04:34:34;3.30;99.90
23685;DHT22;12020;51.384;6.908;2024-03-08T04:37:01;3.30;99.90
23685;DHT22;12020;51.384;6.908;2024-03-08T04:39:27;3.40;99.90
23685;DHT22;12020;51.384;6.908;2024-03-08T04:41:59;3.30;99.90
23685;DHT22;12020;51.384;6.908;2024-03-08T04:44:25;3.30;99.90
23685;DHT22;12020;51.384;6.908;2024-03-08T04:46:51;3.30;99.90
23685;DHT22;12020;51.384;6.908;2024-03-08T04:49:17;3.30;99.90
23685;DHT22;12020;51.384;6.908;2024-03-08T04:51:43;3.20;99.90
23685;DHT22;12020;51.384;6.908;2024-03-08T04:54:10;3.20;99.90
23685;DHT22;12020;51.384;6.908;2024-03-08T04:56:35;3.20;99.90
23685;DHT22;12020;51.384;6.908;2024-03-08T04:59:01;3.20;99.90
23685;DHT22;12020;51.384;6.908;2024-03-08T05:01:27;3.20;99.90
23685;DHT22;12020;51.384;6.908;2024-03-08T05:03:52;3.10;99.90
23685;DHT22;12020;51.384;6.908;2024-03-08T05:06:20;3.00;99.90
23685;DHT22;12020;51.384;6.908;2024-03-08T05:08:46;2.90;99.90
23685;DHT22;12020;51.384;6.908;2024-03-08T05:11:11;2.90;99.90
23685;DHT22;12020;51.384;6.908;2024-03-08T05:13:40;2.90;99.90
23685;DHT22;12020;51.384;6.908;2024-03-08T05:16:06;2.80;99.90
23685;DHT22;12020;51.384;6.908;2024-03-08T05:18:33;2.80;99.90
23685;DHT22;12020;51.384;6.908;2024-03-08T05:20:59;2.80;99.90
23685;DHT22;12020;51.384;6.908;2024-03-08T05:23:24;2.80;99.90
23685;DHT22;12020;51.384;6.908;2024-03-08T05:25:50;2.80;99.90
23685;DHT22;12020;51.384;6.908;2024-03-08T05:28:16;2.90;99.90
23685;DHT22;12020;51.384;6.908;2024-03-08T05:30:41;2.90;99.90
23685;DHT22;12020;51.384;6.908;2024-03-08T05:33:07;3.00;99.90
23685;DHT22;12020;51.384;6.908;2024-03-08T05:35:36;2.90;99.90
23685;DHT22;12020;51.384;6.908;2024-03-08T05:38:01;2.90;99.90
23685;DHT22;12020;51.384;6.908;2024-03-08T05:40:27;2.90;99.90
23685;DHT22;12020;51.384;6.908;2024-03-08T05:42:58;2.90;99.90
23685;DHT22;12020;51.384;6.908;2024-03-08T05:45:24;2.90;99.90
23685;DHT22;12020;51.384;6.908;2024-03-08T05:47:50;2.90;99.90
23685;DHT22;12020;51.384;6.908;2024-03-08T05:50:17;2.90;99.90
23685;DHT22;12020;51.384;6.908;2024-03-08T05:52:43;2.90;99.90
23685;DHT22;12020;51.384;6.908;2024-03-08T05:55:09;2.90;99.90
23685;DHT22;12020;51.384;6.908;2024-03-08T05:57:35;2.90;99.90
23685;DHT22;12020;51.384;6.908;2024-03-08T06:00:05;3.00;99.90
23685;DHT22;12020;51.384;6.908;2024-03-08T06:02:31;3.00;99.90
23685;DHT22;12020;51.384;6.908;2024-03-08T06:04:57;3.00;99.90
23685;DHT22;12020;51.384;6.908;2024-03-08T06:07:23;3.00;99.90
23685;DHT22;12020;51.384;6.908;2024-03-08T06:09:50;3.00;99.90
23685;DHT22;12020;51.384;6.908;2024-03-08T06:12:16;3.10;99.90
23685;DHT22;12020;51.384;6.908;2024-03-08T06:14:45;3.00;99.90
23685;DHT22;12020;51.384;6.908;2024-03-08T06:17:11;3.00;99.90
23685;DHT22;12020;51.384;6.908;2024-03-08T06:19:37;3.00;99.90
23685;DHT22;12020;51.384;6.908;2024-03-08T06:22:03;2.90;99.90
23685;DHT22;12020;51.384;6.908;2024-03-08T06:24:46;3.00;99.90
23685;DHT22;12020;51.384;6.908;2024-03-08T06:27:15;2.90;99.90
23685;DHT22;12020;51.384;6.908;2024-03-08T06:33:24;3.00;99.90
23685;DHT22;12020;51.384;6.908;2024-03-08T06:36:49;2.90;99.90
23685;DHT22;12020;51.384;6.908;2024-03-08T06:39:41;2.90;99.90
23685;DHT22;12020;51.384;6.908;2024-03-08T06:42:07;3.00;99.90
23685;DHT22;12020;51.384;6.908;2024-03-08T06:44:36;3.00;99.90
23685;DHT22;12020;51.384;6.908;2024-03-08T06:47:02;3.00;99.90
23685;DHT22;12020;51.384;6.908;2024-03-08T06:49:30;3.00;99.90
23685;DHT22;12020;51.384;6.908;2024-03-08T06:52:21;3.00;99.90
23685;DHT22;12020;51.384;6.908;2024-03-08T06:55:25;3.00;99.90
23685;DHT22;12020;51.384;6.908;2024-03-08T07:03:01;3.10;99.90
23685;DHT22;12020;51.384;6.908;2024-03-08T07:05:49;3.30;99.90
23685;DHT22;12020;51.384;6.908;2024-03-08T07:14:10;3.30;99.90
23685;DHT22;12020;51.384;6.908;2024-03-08T12:38:00;12.20;99.90
23685;DHT22;12020;51.384;6.908;2024-03-08T13:24:29;12.20;99.90
23685;DHT22;12020;51.384;6.908;2024-03-08T13:26:56;12.20;99.90
23685;DHT22;12020;51.384;6.908;2024-03-08T13:39:49;12.20;99.90
23685;DHT22;12020;51.384;6.908;2024-03-08T13:58:20;12.20;99.90
23685;DHT22;12020;51.384;6.908;2024-03-08T14:01:17;12.20;99.90
23685;DHT22;12020;51.384;6.908;2024-03-08T14:03:44;12.10;99.90
23685;DHT22;12020;51.384;6.908;2024-03-08T14:51:33;12.10;99.90
23685;DHT22;12020;51.384;6.908;2024-03-08T14:54:27;12.10;99.90
23685;DHT22;12020;51.384;6.908;2024-03-08T15:02:19;11.90;99.90
23685;DHT22;12020;51.384;6.908;2024-03-08T15:04:49;11.90;99.90
23685;DHT22;12020;51.384;6.908;2024-03-08T15:10:03;11.80;99.90
23685;DHT22;12020;51.384;6.908;2024-03-08T15:13:00;11.80;99.90
23685;DHT22;12020;51.384;6.908;2024-03-08T15:26:58;11.80;99.90
23685;DHT22;12020;51.384;6.908;2024-03-08T15:32:43;11.80;99.90
23685;DHT22;12020;51.384;6.908;2024-03-08T15:35:38;11.80;99.90
23685;DHT22;12020;51.384;6.908;2024-03-08T15:44:08;11.70;99.90
23685;DHT22;12020;51.384;6.908;2024-03-08T16:03:06;11.60;99.90
23685;DHT22;12020;51.384;6.908;2024-03-08T16:05:53;11.60;99.90
23685;DHT22;12020;51.384;6.908;2024-03-08T16:08:29;11.70;99.90
23685;DHT22;12020;51.384;6.908;2024-03-08T16:11:06;11.60;99.90
23685;DHT22;12020;51.384;6.908;2024-03-08T16:13:56;11.60;99.90
23685;DHT22;12020;51.384;6.908;2024-03-08T16:29:02;11.50;99.90
23685;DHT22;12020;51.384;6.908;2024-03-08T16:35:45;11.50;99.90
23685;DHT22;12020;51.384;6.908;2024-03-08T16:42:56;11.50;99.90
23685;DHT22;12020;51.384;6.908;2024-03-08T16:46:10;11.40;99.90
23685;DHT22;12020;51.384;6.908;2024-03-08T16:54:01;11.20;99.90
23685;DHT22;12020;51.384;6.908;2024-03-08T16:56:30;11.20;99.90
23685;DHT22;12020;51.384;6.908;2024-03-08T17:03:06;11.00;99.90
23685;DHT22;12020;51.384;6.908;2024-03-08T17:06:29;11.00;99.90
23685;DHT22;12020;51.384;6.908;2024-03-08T17:15:27;10.80;99.90
23685;DHT22;12020;51.384;6.908;2024-03-08T17:30:57;10.50;99.90
23685;DHT22;12020;51.384;6.908;2024-03-08T17:33:24;10.80;99.90
23685;DHT22;12020;51.384;6.908;2024-03-08T17:35:51;11.10;99.90
23685;DHT22;12020;51.384;6.908;2024-03-08T17:38:18;11.20;99.90
23685;DHT22;12020;51.384;6.908;2024-03-08T17:40:49;11.20;99.90
23685;DHT22;12020;51.384;6.908;2024-03-08T17:43:18;11.30;99.90
23685;DHT22;12020;51.384;6.908;2024-03-08T17:46:01;11.20;99.90
23685;DHT22;12020;51.384;6.908;2024-03-08T17:48:47;11.00;99.90
23685;DHT22;12020;51.384;6.908;2024-03-08T17:51:14;10.80;99.90
23685;DHT22;12020;51.384;6.908;2024-03-08T17:53:46;10.60;99.90
23685;DHT22;12020;51.384;6.908;2024-03-08T17:56:19;10.50;99.90
23685;DHT22;12020;51.384;6.908;2024-03-08T17:58:51;10.40;99.90
23685;DHT22;12020;51.384;6.908;2024-03-08T18:01:31;10.40;99.90
23685;DHT22;12020;51.384;6.908;2024-03-08T18:04:06;10.20;99.90
23685;DHT22;12020;51.384;6.908;2024-03-08T18:06:35;10.20;99.90
23685;DHT22;12020;51.384;6.908;2024-03-08T18:09:07;10.10;99.90
23685;DHT22;12020;51.384;6.908;2024-03-08T18:11:38;10.00;99.90
23685;DHT22;12020;51.384;6.908;2024-03-08T18:14:06;9.90;99.90
23685;DHT22;12020;51.384;6.908;2024-03-08T18:16:39;9.90;99.90
23685;DHT22;12020;51.384;6.908;2024-03-08T18:19:11;9.80;99.90
23685;DHT22;12020;51.384;6.908;2024-03-08T18:21:46;9.70;99.90
23685;DHT22;12020;51.384;6.908;2024-03-08T18:24:48;9.70;99.90
23685;DHT22;12020;51.384;6.908;2024-03-08T18:29:51;9.60;99.90
23685;DHT22;12020;51.384;6.908;2024-03-08T18:32:26;9.50;99.90
23685;DHT22;12020;51.384;6.908;2024-03-08T18:35:31;9.50;99.90
23685;DHT22;12020;51.384;6.908;2024-03-08T18:38:46;9.40;99.90
23685;DHT22;12020;51.384;6.908;2024-03-08T18:41:19;9.50;99.90
23685;DHT22;12020;51.384;6.908;2024-03-08T18:44:07;9.30;99.90
23685;DHT22;12020;51.384;6.908;2024-03-08T18:46:40;9.30;99.90
23685;DHT22;12020;51.384;6.908;2024-03-08T18:50:00;9.10;99.90
23685;DHT22;12020;51.384;6.908;2024-03-08T18:53:02;9.10;99.90
23685;DHT22;12020;51.384;6.908;2024-03-08T18:55:48;9.10;99.90
23685;DHT22;12020;51.384;6.908;2024-03-08T18:58:37;9.00;99.90
23685;DHT22;12020;51.384;6.908;2024-03-08T19:01:38;9.00;99.90
23685;DHT22;12020;51.384;6.908;2024-03-08T19:04:28;8.90;99.90
23685;DHT22;12020;51.384;6.908;2024-03-08T19:07:02;8.90;99.90
23685;DHT22;12020;51.384;6.908;2024-03-08T19:09:57;8.80;99.90
23685;DHT22;12020;51.384;6.908;2024-03-08T19:13:34;8.80;99.90
23685;DHT22;12020;51.384;6.908;2024-03-08T19:16:27;8.90;99.90
23685;DHT22;12020;51.384;6.908;2024-03-08T19:19:52;8.80;99.90
23685;DHT22;12020;51.384;6.908;2024-03-08T19:26:43;8.70;99.90
23685;DHT22;12020;51.384;6.908;2024-03-08T19:29:17;8.60;99.90
23685;DHT22;12020;51.384;6.908;2024-03-08T19:31:47;8.60;99.90
23685;DHT22;12020;51.384;6.908;2024-03-08T19:34:20;8.60;99.90
23685;DHT22;12020;51.384;6.908;2024-03-08T19:36:57;8.50;99.90
23685;DHT22;12020;51.384;6.908;2024-03-08T19:39:24;8.40;99.90
23685;DHT22;12020;51.384;6.908;2024-03-08T19:41:52;8.40;99.90
23685;DHT22;12020;51.384;6.908;2024-03-08T19:44:22;8.40;99.90
23685;DHT22;12020;51.384;6.908;2024-03-08T19:46:50;8.30;99.90
23685;DHT22;12020;51.384;6.908;2024-03-08T19:49:24;8.20;99.90
23685;DHT22;12020;51.384;6.908;2024-03-08T19:51:55;8.20;99.90
23685;DHT22;12020;51.384;6.908;2024-03-08T19:54:23;8.10;99.90
23685;DHT22;12020;51.384;6.908;2024-03-08T19:56:55;8.10;99.90
23685;DHT22;12020;51.384;6.908;2024-03-08T19:59:34;8.10;99.90
23685;DHT22;12020;51.384;6.908;2024-03-08T20:02:10;8.10;99.90
23685;DHT22;12020;51.384;6.908;2024-03-08T20:04:42;8.00;99.90
23685;DHT22;12020;51.384;6.908;2024-03-08T20:07:10;8.00;99.90
23685;DHT22;12020;51.384;6.908;2024-03-08T20:09:41;8.00;99.90
23685;DHT22;12020;51.384;6.908;2024-03-08T20:12:08;7.90;99.90
23685;DHT22;12020;51.384;6.908;2024-03-08T20:14:38;7.90;99.90
23685;DHT22;12020;51.384;6.908;2024-03-08T20:17:06;8.00;99.90
23685;DHT22;12020;51.384;6.908;2024-03-08T20:19:32;7.90;99.90
23685;DHT22;12020;51.384;6.908;2024-03-08T20:21:58;7.90;99.90
23685;DHT22;12020;51.384;6.908;2024-03-08T20:24:30;7.90;99.90
23685;DHT22;12020;51.384;6.908;2024-03-08T20:26:56;7.90;99.90
23685;DHT22;12020;51.384;6.908;2024-03-08T20:29:32;7.90;99.90
23685;DHT22;12020;51.384;6.908;2024-03-08T20:31:59;7.90;99.90
23685;DHT22;12020;51.384;6.908;2024-03-08T20:34:27;7.90;99.90
23685;DHT22;12020;51.384;6.908;2024-03-08T20:36:54;7.80;99.90
23685;DHT22;12020;51.384;6.908;2024-03-08T20:39:21;7.80;99.90
23685;DHT22;12020;51.384;6.908;2024-03-08T20:41:47;7.80;99.90
23685;DHT22;12020;51.384;6.908;2024-03-08T20:44:17;7.70;99.90
23685;DHT22;12020;51.384;6.908;2024-03-08T20:46:46;7.70;99.90
23685;DHT22;12020;51.384;6.908;2024-03-08T20:49:13;7.70;99.90
23685;DHT22;12020;51.384;6.908;2024-03-08T20:51:41;7.60;99.90
23685;DHT22;12020;51.384;6.908;2024-03-08T20:54:07;7.60;99.90
23685;DHT22;12020;51.384;6.908;2024-03-08T20:56:34;7.60;99.90
23685;DHT22;12020;51.384;6.908;2024-03-08T20:59:06;7.60;99.90
23685;DHT22;12020;51.384;6.908;2024-03-08T21:01:37;7.60;99.90
23685;DHT22;12020;51.384;6.908;2024-03-08T21:04:08;7.60;99.90
23685;DHT22;12020;51.384;6.908;2024-03-08T21:06:43;7.50;99.90
23685;DHT22;12020;51.384;6.908;2024-03-08T21:09:09;7.50;99.90
23685;DHT22;12020;51.384;6.908;2024-03-08T21:11:39;7.40;99.90
23685;DHT22;12020;51.384;6.908;2024-03-08T21:14:08;7.50;99.90
23685;DHT22;12020;51.384;6.908;2024-03-08T21:16:36;7.40;99.90
23685;DHT22;12020;51.384;6.908;2024-03-08T21:19:04;7.30;99.90
23685;DHT22;12020;51.384;6.908;2024-03-08T21:21:31;7.30;99.90
23685;DHT22;12020;51.384;6.908;2024-03-08T21:24:00;7.30;99.90
23685;DHT22;12020;51.384;6.908;2024-03-08T21:26:30;7.20;99.90
23685;DHT22;12020;51.384;6.908;2024-03-08T21:28:57;7.20;99.90
23685;DHT22;12020;51.384;6.908;2024-03-08T21:31:26;7.20;99.90
23685;DHT22;12020;51.384;6.908;2024-03-08T21:33:54;7.20;99.90
23685;DHT22;12020;51.384;6.908;2024-03-08T21:36:21;7.20;99.90
23685;DHT22;12020;51.384;6.908;2024-03-08T21:38:49;7.20;99.90
23685;DHT22;12020;51.384;6.908;2024-03-08T21:41:16;7.10;99.90
23685;DHT22;12020;51.384;6.908;2024-03-08T21:43:45;7.10;99.90
23685;DHT22;12020;51.384;6.908;2024-03-08T21:46:17;7.00;99.90
23685;DHT22;12020;51.384;6.908;2024-03-08T21:48:46;6.90;99.90
23685;DHT22;12020;51.384;6.908;2024-03-08T21:51:15;6.90;99.90
23685;DHT22;12020;51.384;6.908;2024-03-08T21:53:43;6.80;99.90
23685;DHT22;12020;51.384;6.908;2024-03-08T21:56:16;6.80;99.90
23685;DHT22;12020;51.384;6.908;2024-03-08T21:58:47;6.80;99.90
23685;DHT22;12020;51.384;6.908;2024-03-08T22:01:17;6.70;99.90
23685;DHT22;12020;51.384;6.908;2024-03-08T22:04:05;6.60;99.90
23685;DHT22;12020;51.384;6.908;2024-03-08T22:06:34;6.60;99.90
23685;DHT22;12020;51.384;6.908;2024-03-08T22:09:02;6.60;99.90
23685;DHT22;12020;51.384;6.908;2024-03-08T22:11:33;6.50;99.90
23685;DHT22;12020;51.384;6.908;2024-03-08T22:14:02;6.50;99.90
23685;DHT22;12020;51.384;6.908;2024-03-08T22:16:35;6.40;99.90
23685;DHT22;12020;51.384;6.908;2024-03-08T22:19:10;6.40;99.90
23685;DHT22;12020;51.384;6.908;2024-03-08T22:21:48;6.30;99.90
23685;DHT22;12020;51.384;6.908;2024-03-08T22:24:15;6.30;99.90
23685;DHT22;12020;51.384;6.908;2024-03-08T22:26:43;6.30;99.90
23685;DHT22;12020;51.384;6.908;2024-03-08T22:29:14;6.40;99.90
23685;DHT22;12020;51.384;6.908;2024-03-08T22:31:39;6.30;99.90
23685;DHT22;12020;51.384;6.908;2024-03-08T22:34:06;6.30;99.90
23685;DHT22;12020;51.384;6.908;2024-03-08T22:36:33;6.20;99.90
23685;DHT22;12020;51.384;6.908;2024-03-08T22:39:03;6.20;99.90
23685;DHT22;12020;51.384;6.908;2024-03-08T22:41:36;6.10;99.90
23685;DHT22;12020;51.384;6.908;2024-03-08T22:44:09;6.10;99.90
23685;DHT22;12020;51.384;6.908;2024-03-08T22:46:45;6.20;99.90
23685;DHT22;12020;51.384;6.908;2024-03-08T22:49:19;6.10;99.90
23685;DHT22;12020;51.384;6.908;2024-03-08T22:51:47;6.10;99.90
23685;DHT22;12020;51.384;6.908;2024-03-08T22:54:14;6.00;99.90
23685;DHT22;12020;51.384;6.908;2024-03-08T22:56:44;6.00;99.90
23685;DHT22;12020;51.384;6.908;2024-03-08T22:59:17;6.00;99.90
23685;DHT22;12020;51.384;6.908;2024-03-08T23:01:48;6.00;99.90
23685;DHT22;12020;51.384;6.908;2024-03-08T23:04:18;5.90;99.90
23685;DHT22;12020;51.384;6.908;2024-03-08T23:06:56;6.00;99.90
23685;DHT22;12020;51.384;6.908;2024-03-08T23:09:22;5.90;99.90
23685;DHT22;12020;51.384;6.908;2024-03-08T23:11:49;5.90;99.90
23685;DHT22;12020;51.384;6.908;2024-03-08T23:14:18;5.90;99.90
23685;DHT22;12020;51.384;6.908;2024-03-08T23:16:45;5.80;99.90
23685;DHT22;12020;51.384;6.908;2024-03-08T23:19:18;5.70;99.90
23685;DHT22;12020;51.384;6.908;2024-03-08T23:21:50;5.70;99.90
23685;DHT22;12020;51.384;6.908;2024-03-08T23:24:19;5.60;99.90
23685;DHT22;12020;51.384;6.908;2024-03-08T23:26:45;5.60;99.90
23685;DHT22;12020;51.384;6.908;2024-03-08T23:29:24;5.60;99.90
23685;DHT22;12020;51.384;6.908;2024-03-08T23:31:50;5.60;99.90
23685;DHT22;12020;51.384;6.908;2024-03-08T23:34:17;5.50;99.90
23685;DHT22;12020;51.384;6.908;2024-03-08T23:36:47;5.60;99.90
23685;DHT22;12020;51.384;6.908;2024-03-08T23:39:19;5.50;99.90
23685;DHT22;12020;51.384;6.908;2024-03-08T23:41:57;5.70;99.90
23685;DHT22;12020;51.384;6.908;2024-03-08T23:44:27;5.50;99.90
23685;DHT22;12020;51.384;6.908;2024-03-08T23:46:57;5.50;99.90
23685;DHT22;12020;51.384;6.908;2024-03-08T23:49:29;5.40;99.90
23685;DHT22;12020;51.384;6.908;2024-03-08T23:51:58;5.40;99.90
23685;DHT22;12020;51.384;6.908;2024-03-08T23:54:28;5.40;99.90
23685;DHT22;12020;51.384;6.908;2024-03-08T23:56:56;5.50;99.90
23685;DHT22;12020;51.384;6.908;2024-03-08T23:59:24;5.40;99.90
